createdAt,value
2023-02-06T00:00:47.027Z,-5.61
2023-02-06T00:03:13.970Z,-5.74
2023-02-06T00:05:40.672Z,-5.89
2023-02-06T00:08:07.344Z,-6.04
2023-02-06T00:10:34.537Z,-5.99
2023-02-06T00:13:01.139Z,-5.85
2023-02-06T00:15:35.634Z,-5.58
2023-02-06T00:18:02.479Z,-5.49
2023-02-06T00:20:29.068Z,-5.45
2023-02-06T00:22:55.649Z,-5.46
2023-02-06T00:25:22.205Z,-5.52
2023-02-06T00:27:48.791Z,-5.51
2023-02-06T00:30:15.481Z,-5.54
2023-02-06T00:32:42.135Z,-5.58
2023-02-06T00:35:08.767Z,-5.65
2023-02-06T00:37:35.396Z,-5.61
2023-02-06T00:40:05.035Z,-5.62
2023-02-06T00:42:31.548Z,-5.66
2023-02-06T00:44:58.078Z,-5.63
2023-02-06T00:47:24.659Z,-5.66
2023-02-06T00:49:51.271Z,-5.70
2023-02-06T00:52:17.830Z,-5.75
2023-02-06T00:54:44.363Z,-5.75
2023-02-06T00:57:11.034Z,-5.76
2023-02-06T00:59:37.628Z,-5.75
2023-02-06T01:02:04.311Z,-5.72
2023-02-06T01:04:30.872Z,-5.71
2023-02-06T01:06:57.483Z,-5.75
2023-02-06T01:09:24.053Z,-5.76
2023-02-06T01:11:50.596Z,-5.92
2023-02-06T01:14:17.293Z,-5.83
2023-02-06T01:16:43.855Z,-5.89
2023-02-06T01:19:10.654Z,-5.78
2023-02-06T01:21:37.439Z,-5.88
2023-02-06T01:24:04.219Z,-5.97
2023-02-06T01:26:30.784Z,-6.10
2023-02-06T01:28:57.432Z,-6.08
2023-02-06T01:31:28.275Z,-6.11
2023-02-06T01:33:56.603Z,-6.02
2023-02-06T01:36:23.771Z,-6.11
2023-02-06T01:38:50.997Z,-5.97
2023-02-06T01:41:19.585Z,-5.85
2023-02-06T01:44:07.640Z,-5.96
2023-02-06T01:46:34.543Z,-5.97
2023-02-06T01:49:02.070Z,-5.91
2023-02-06T01:51:30.521Z,-6.09
2023-02-06T01:54:02.235Z,-6.26
2023-02-06T01:56:34.115Z,-6.16
2023-02-06T01:59:03.055Z,-5.97
2023-02-06T02:01:30.229Z,-5.87
2023-02-06T02:04:04.369Z,-6.02
2023-02-06T02:06:31.358Z,-5.82
2023-02-06T02:08:58.859Z,-5.94
2023-02-06T02:11:32.863Z,-5.96
2023-02-06T02:14:00.851Z,-5.77
2023-02-06T02:16:55.852Z,-5.51
2023-02-06T02:19:34.477Z,-5.54
2023-02-06T02:22:19.374Z,-5.55
2023-02-06T02:25:17.626Z,-5.63
2023-02-06T02:28:21.845Z,-5.64
2023-02-06T02:30:54.591Z,-5.73
2023-02-06T02:33:58.543Z,-5.92
2023-02-06T02:36:49.830Z,-6.02
2023-02-06T02:39:21.702Z,-5.89
2023-02-06T02:42:16.998Z,-5.97
2023-02-06T02:44:50.655Z,-6.03
2023-02-06T02:47:21.437Z,-6.10
2023-02-06T02:49:49.098Z,-6.04
2023-02-06T02:52:15.823Z,-6.05
2023-02-06T02:54:42.463Z,-6.06
2023-02-06T02:57:14.753Z,-6.04
2023-02-06T02:59:45.475Z,-5.96
2023-02-06T03:02:21.624Z,-5.86
2023-02-06T03:04:53.587Z,-5.94
2023-02-06T03:07:38.445Z,-5.83
2023-02-06T03:10:14.109Z,-5.98
2023-02-06T03:13:02.951Z,-5.90
2023-02-06T03:15:40.038Z,-6.00
2023-02-06T03:18:19.577Z,-6.08
2023-02-06T03:20:47.975Z,-6.13
2023-02-06T03:23:19.428Z,-6.05
2023-02-06T03:25:50.895Z,-6.10
2023-02-06T03:28:23.702Z,-6.07
2023-02-06T03:30:55.183Z,-6.19
2023-02-06T03:33:26.927Z,-6.11
2023-02-06T03:35:55.223Z,-5.98
2023-02-06T03:38:24.785Z,-6.03
2023-02-06T03:40:53.409Z,-6.07
2023-02-06T03:43:22.811Z,-5.98
2023-02-06T03:45:56.301Z,-6.04
2023-02-06T03:48:37.263Z,-6.07
2023-02-06T03:51:10.092Z,-6.06
2023-02-06T03:53:38.794Z,-5.93
2023-02-06T03:56:19.390Z,-5.95
2023-02-06T03:58:45.991Z,-6.05
2023-02-06T04:01:13.665Z,-6.16
2023-02-06T04:03:40.795Z,-6.17
2023-02-06T04:06:07.660Z,-6.07
2023-02-06T04:08:34.216Z,-6.03
2023-02-06T04:11:00.764Z,-6.04
2023-02-06T04:13:27.318Z,-6.03
2023-02-06T04:15:56.210Z,-5.97
2023-02-06T04:18:24.052Z,-5.95
2023-02-06T04:20:52.401Z,-5.91
2023-02-06T04:23:19.981Z,-6.01
2023-02-06T04:25:46.882Z,-6.01
2023-02-06T04:28:14.078Z,-6.02
2023-02-06T04:30:40.823Z,-6.03
2023-02-06T04:33:07.515Z,-6.10
2023-02-06T04:35:34.323Z,-6.13
2023-02-06T04:38:01.044Z,-6.03
2023-02-06T04:40:27.663Z,-6.10
2023-02-06T04:42:54.238Z,-6.10
2023-02-06T04:45:20.820Z,-6.00
2023-02-06T04:47:50.178Z,-5.96
2023-02-06T04:50:17.799Z,-5.80
2023-02-06T04:52:44.466Z,-5.83
2023-02-06T04:55:11.119Z,-5.67
2023-02-06T04:57:37.916Z,-5.76
2023-02-06T05:00:06.564Z,-5.66
2023-02-06T05:02:39.632Z,-5.53
2023-02-06T05:05:08.182Z,-5.55
2023-02-06T05:07:35.608Z,-5.56
2023-02-06T05:10:02.481Z,-5.48
2023-02-06T05:12:29.178Z,-5.48
2023-02-06T05:14:55.938Z,-5.45
2023-02-06T05:17:22.487Z,-5.40
2023-02-06T05:19:49.066Z,-5.41
2023-02-06T05:22:15.638Z,-5.38
2023-02-06T05:24:42.222Z,-5.27
2023-02-06T05:27:08.805Z,-5.21
2023-02-06T05:29:35.337Z,-5.09
2023-02-06T05:32:01.926Z,-5.05
2023-02-06T05:34:28.500Z,-5.08
2023-02-06T05:36:55.064Z,-4.99
2023-02-06T05:39:22.033Z,-4.99
2023-02-06T05:41:48.620Z,-4.95
2023-02-06T05:44:15.190Z,-4.93
2023-02-06T05:46:41.871Z,-4.97
2023-02-06T05:49:08.440Z,-4.93
2023-02-06T05:51:35.127Z,-4.90
2023-02-06T05:54:01.760Z,-4.89
2023-02-06T05:56:28.293Z,-4.86
2023-02-06T05:58:54.888Z,-4.71
2023-02-06T06:01:21.489Z,-4.60
2023-02-06T06:03:48.094Z,-4.66
2023-02-06T06:06:14.830Z,-4.72
2023-02-06T06:08:41.412Z,-4.53
2023-02-06T06:11:08.219Z,-4.60
2023-02-06T06:13:34.856Z,-4.64
2023-02-06T06:16:01.432Z,-4.56
2023-02-06T06:18:28.088Z,-4.55
2023-02-06T06:20:54.730Z,-4.49
2023-02-06T06:23:21.332Z,-4.53
2023-02-06T06:25:48.831Z,-4.52
2023-02-06T06:28:15.442Z,-4.31
2023-02-06T06:30:42.335Z,-4.42
2023-02-06T06:33:08.864Z,-4.36
2023-02-06T06:35:35.708Z,-4.29
2023-02-06T06:38:02.385Z,-4.12
2023-02-06T06:40:29.067Z,-4.41
2023-02-06T06:42:55.633Z,-4.45
2023-02-06T06:45:22.325Z,-4.54
2023-02-06T06:47:48.932Z,-4.50
2023-02-06T06:50:15.664Z,-4.46
2023-02-06T06:52:42.273Z,-4.39
2023-02-06T06:55:08.891Z,-4.38
2023-02-06T06:57:35.517Z,-4.45
2023-02-06T07:00:02.567Z,-4.44
2023-02-06T07:02:30.339Z,-4.43
2023-02-06T07:04:57.296Z,-4.43
2023-02-06T07:07:23.977Z,-4.37
2023-02-06T07:09:50.575Z,-4.15
2023-02-06T07:12:17.925Z,-4.16
2023-02-06T07:14:44.610Z,-4.18
2023-02-06T07:17:11.202Z,-4.17
2023-02-06T07:19:37.763Z,-4.12
2023-02-06T07:22:04.466Z,-4.09
2023-02-06T07:24:31.785Z,-4.11
2023-02-06T07:27:00.993Z,-3.94
2023-02-06T07:29:28.187Z,-3.68
2023-02-06T07:31:55.025Z,-3.89
2023-02-06T07:34:21.645Z,-3.91
2023-02-06T07:36:48.243Z,-3.91
2023-02-06T07:39:14.834Z,-3.85
2023-02-06T07:41:41.393Z,-3.80
2023-02-06T07:44:08.125Z,-3.71
2023-02-06T07:46:34.854Z,-3.59
2023-02-06T07:49:01.476Z,-3.59
2023-02-06T07:51:28.230Z,-3.53
2023-02-06T07:53:55.200Z,-3.55
2023-02-06T07:56:26.668Z,-3.50
2023-02-06T07:58:54.994Z,-3.46
2023-02-06T08:01:22.989Z,-3.35
2023-02-06T08:03:53.912Z,-3.16
2023-02-06T08:06:24.247Z,-2.89
2023-02-06T08:08:51.925Z,-2.97
2023-02-06T08:11:20.541Z,-2.98
2023-02-06T08:13:48.321Z,-3.08
2023-02-06T08:16:19.556Z,-3.08
2023-02-06T08:18:46.377Z,-2.85
2023-02-06T08:21:15.965Z,-2.91
2023-02-06T08:23:43.217Z,-2.73
2023-02-06T08:26:18.960Z,-2.70
2023-02-06T08:28:47.198Z,-2.94
2023-02-06T08:31:20.856Z,-2.95
2023-02-06T08:33:48.206Z,-2.93
2023-02-06T08:36:15.713Z,-2.98
2023-02-06T08:38:42.499Z,-2.93
2023-02-06T08:41:22.179Z,-2.97
2023-02-06T08:43:50.688Z,-2.89
2023-02-06T08:46:18.902Z,-2.80
2023-02-06T08:48:46.137Z,-2.76
2023-02-06T08:51:13.500Z,-2.67
2023-02-06T08:53:40.155Z,-2.75
2023-02-06T08:56:12.128Z,-2.45
2023-02-06T08:58:39.711Z,-2.07
2023-02-06T09:01:13.787Z,-2.19
2023-02-06T09:03:41.832Z,-2.16
2023-02-06T09:06:10.286Z,-2.19
2023-02-06T09:08:38.592Z,-1.82
2023-02-06T09:11:16.158Z,-2.10
2023-02-06T09:13:44.368Z,-1.92
2023-02-06T09:16:11.981Z,-2.19
2023-02-06T09:18:38.872Z,-1.99
2023-02-06T09:21:11.417Z,-1.96
2023-02-06T09:23:43.805Z,-1.85
2023-02-06T09:26:15.414Z,-2.07
2023-02-06T09:28:42.488Z,-1.99
2023-02-06T09:31:09.875Z,-1.77
2023-02-06T09:33:40.158Z,-1.52
2023-02-06T09:36:11.800Z,-2.23
2023-02-06T09:38:43.755Z,-2.20
2023-02-06T09:41:47.566Z,-2.16
2023-02-06T09:44:27.183Z,-2.11
2023-02-06T09:47:05.099Z,-1.74
2023-02-06T09:49:46.515Z,-1.78
2023-02-06T09:52:19.142Z,-1.91
2023-02-06T09:55:12.842Z,-1.66
2023-02-06T09:57:59.612Z,-1.66
2023-02-06T10:00:44.375Z,-1.54
2023-02-06T10:03:23.103Z,-1.56
2023-02-06T10:05:58.989Z,-1.35
2023-02-06T10:08:28.448Z,-1.11
2023-02-06T10:11:02.369Z,-1.42
2023-02-06T10:13:41.110Z,-1.61
2023-02-06T10:16:37.001Z,-1.66
2023-02-06T10:19:19.181Z,-1.14
2023-02-06T10:22:00.115Z,-1.09
2023-02-06T10:24:41.421Z,-1.15
2023-02-06T10:27:13.575Z,-0.90
2023-02-06T10:29:42.656Z,-0.75
2023-02-06T10:32:46.316Z,-1.10
2023-02-06T10:35:21.847Z,-1.11
2023-02-06T10:38:15.863Z,-0.62
2023-02-06T10:41:01.179Z,-0.33
2023-02-06T10:43:35.370Z,-0.23
2023-02-06T10:46:19.904Z,-0.09
2023-02-06T10:49:02.603Z,-0.22
2023-02-06T10:51:33.789Z,-0.77
2023-02-06T10:54:04.258Z,-0.71
2023-02-06T10:56:36.851Z,-0.99
2023-02-06T10:59:25.048Z,-0.90
2023-02-06T11:02:01.326Z,-1.20
2023-02-06T11:04:37.566Z,-1.05
2023-02-06T11:07:08.971Z,-1.17
2023-02-06T11:09:36.017Z,-1.27
2023-02-06T11:12:03.576Z,-1.24
2023-02-06T11:14:37.448Z,-1.35
2023-02-06T11:17:04.010Z,-1.09
2023-02-06T11:19:44.472Z,-1.06
2023-02-06T11:22:12.301Z,-0.79
2023-02-06T11:24:57.601Z,-0.58
2023-02-06T11:27:24.272Z,-0.46
2023-02-06T11:29:52.273Z,-0.93
2023-02-06T11:32:31.104Z,-0.75
2023-02-06T11:35:01.693Z,-0.79
2023-02-06T11:37:32.565Z,-0.85
2023-02-06T11:40:17.494Z,-0.97
2023-02-06T11:42:45.671Z,-0.50
2023-02-06T11:45:40.913Z,-0.34
2023-02-06T11:48:31.537Z,-0.43
2023-02-06T11:50:58.170Z,-0.33
2023-02-06T11:53:24.709Z,0.26
2023-02-06T11:56:18.845Z,-0.10
2023-02-06T11:58:45.997Z,-0.16
2023-02-06T12:01:22.636Z,-0.31
2023-02-06T12:03:58.874Z,-0.20
2023-02-06T12:06:30.802Z,-0.05
2023-02-06T12:09:00.331Z,-0.21
2023-02-06T12:11:51.272Z,-0.24
2023-02-06T12:14:29.577Z,-0.25
2023-02-06T12:16:57.366Z,0.24
2023-02-06T12:19:33.696Z,0.59
2023-02-06T12:22:22.624Z,0.59
2023-02-06T12:24:52.593Z,0.85
2023-02-06T12:27:39.065Z,0.32
2023-02-06T12:30:31.085Z,0.53
2023-02-06T12:33:10.727Z,0.77
2023-02-06T12:35:46.116Z,1.19
2023-02-06T12:38:43.990Z,0.35
2023-02-06T12:41:36.749Z,0.01
2023-02-06T12:44:19.068Z,0.13
2023-02-06T12:46:50.015Z,0.95
2023-02-06T12:49:30.497Z,0.83
2023-02-06T12:52:11.916Z,0.31
2023-02-06T12:54:48.212Z,0.77
2023-02-06T12:57:20.010Z,0.49
2023-02-06T13:00:05.395Z,0.43
2023-02-06T13:03:09.757Z,0.43
2023-02-06T13:05:41.266Z,0.66
2023-02-06T13:08:16.168Z,1.06
2023-02-06T13:10:43.600Z,1.38
2023-02-06T13:13:32.973Z,0.77
2023-02-06T13:16:00.591Z,0.87
2023-02-06T13:18:50.682Z,1.17
2023-02-06T13:21:29.136Z,1.37
2023-02-06T13:24:01.775Z,0.99
2023-02-06T13:26:51.607Z,0.84
2023-02-06T13:29:28.832Z,0.43
2023-02-06T13:32:19.778Z,-0.03
2023-02-06T13:34:49.648Z,0.03
2023-02-06T13:37:35.036Z,0.33
2023-02-06T13:40:23.414Z,0.40
2023-02-06T13:42:59.364Z,0.78
2023-02-06T13:45:28.074Z,0.96
2023-02-06T13:48:06.728Z,1.02
2023-02-06T13:50:53.525Z,0.96
2023-02-06T13:53:50.141Z,0.79
2023-02-06T13:56:52.190Z,1.27
2023-02-06T13:59:29.501Z,0.73
2023-02-06T14:01:56.412Z,0.96
2023-02-06T14:04:28.543Z,0.87
2023-02-06T14:07:08.957Z,0.49
2023-02-06T14:10:28.714Z,0.64
2023-02-06T14:13:02.040Z,1.07
2023-02-06T14:16:03.469Z,1.08
2023-02-06T14:18:53.356Z,0.81
2023-02-06T14:21:44.701Z,0.81
2023-02-06T14:24:27.655Z,0.54
2023-02-06T14:27:06.332Z,0.38
2023-02-06T14:29:48.105Z,0.34
2023-02-06T14:32:41.676Z,0.71
2023-02-06T14:35:26.543Z,0.63
2023-02-06T14:38:41.778Z,0.43
2023-02-06T14:41:09.480Z,0.45
2023-02-06T14:43:39.602Z,0.16
2023-02-06T14:46:13.105Z,-0.03
2023-02-06T14:48:46.631Z,-0.08
2023-02-06T14:51:28.921Z,0.01
2023-02-06T14:54:02.170Z,-0.18
2023-02-06T14:56:36.610Z,0.14
2023-02-06T14:59:18.839Z,0.31
2023-02-06T15:01:48.575Z,0.14
2023-02-06T15:04:16.994Z,0.08
2023-02-06T15:06:45.027Z,0.10
2023-02-06T15:09:27.857Z,0.33
2023-02-06T15:11:57.908Z,0.35
2023-02-06T15:14:27.631Z,0.28
2023-02-06T15:16:59.165Z,0.16
2023-02-06T15:19:28.656Z,-0.18
2023-02-06T15:22:02.426Z,-0.16
2023-02-06T15:24:57.814Z,-0.23
2023-02-06T15:27:36.863Z,-0.28
2023-02-06T15:30:20.423Z,-0.33
2023-02-06T15:32:52.989Z,-0.46
2023-02-06T15:35:28.243Z,-0.50
2023-02-06T15:37:55.405Z,-0.58
2023-02-06T15:40:39.005Z,-0.62
2023-02-06T15:43:06.730Z,-0.65
2023-02-06T15:45:37.237Z,-0.77
2023-02-06T15:48:21.110Z,-0.81
2023-02-06T15:51:02.526Z,-0.96
2023-02-06T15:53:38.951Z,-1.06
2023-02-06T15:56:16.811Z,-1.43
2023-02-06T15:58:43.416Z,-1.62
2023-02-06T16:01:20.416Z,-1.69
2023-02-06T16:03:52.138Z,-1.62
2023-02-06T16:06:19.374Z,-1.72
2023-02-06T16:08:52.674Z,-2.14
2023-02-06T16:11:37.980Z,-2.14
2023-02-06T16:14:05.713Z,-2.24
2023-02-06T16:16:32.521Z,-2.32
2023-02-06T16:18:59.404Z,-1.91
2023-02-06T16:21:31.730Z,-2.03
2023-02-06T16:24:06.193Z,-1.98
2023-02-06T16:26:39.767Z,-2.00
2023-02-06T16:29:09.105Z,-1.91
2023-02-06T16:31:42.451Z,-2.04
2023-02-06T16:34:34.517Z,-2.11
2023-02-06T16:37:01.164Z,-1.97
2023-02-06T16:39:27.730Z,-2.14
2023-02-06T16:41:54.531Z,-2.39
2023-02-06T16:44:21.612Z,-2.50
2023-02-06T16:46:48.194Z,-2.63
2023-02-06T16:49:23.663Z,-2.76
2023-02-06T16:51:53.611Z,-2.20
2023-02-06T16:54:24.672Z,-2.33
2023-02-06T16:56:52.202Z,-2.01
2023-02-06T16:59:18.835Z,-2.13
2023-02-06T17:01:45.482Z,-2.22
2023-02-06T17:04:12.130Z,-2.33
2023-02-06T17:06:39.008Z,-2.63
2023-02-06T17:09:09.156Z,-2.35
2023-02-06T17:11:37.291Z,-2.81
2023-02-06T17:14:04.484Z,-2.80
2023-02-06T17:16:31.998Z,-2.65
2023-02-06T17:18:58.667Z,-2.68
2023-02-06T17:21:27.636Z,-2.49
2023-02-06T17:23:54.301Z,-2.54
2023-02-06T17:26:22.765Z,-2.56
2023-02-06T17:28:49.892Z,-2.72
2023-02-06T17:31:16.945Z,-2.79
2023-02-06T17:33:43.758Z,-2.93
2023-02-06T17:36:19.058Z,-3.11
2023-02-06T17:38:45.700Z,-2.78
2023-02-06T17:41:12.260Z,-2.95
2023-02-06T17:43:38.898Z,-3.04
2023-02-06T17:46:06.311Z,-3.25
2023-02-06T17:48:36.723Z,-3.23
2023-02-06T17:51:05.107Z,-3.31
2023-02-06T17:53:31.678Z,-3.40
2023-02-06T17:56:03.970Z,-3.15
2023-02-06T17:58:30.561Z,-3.17
2023-02-06T18:00:57.202Z,-3.35
2023-02-06T18:03:23.859Z,-3.57
2023-02-06T18:06:00.894Z,-3.78
2023-02-06T18:08:28.642Z,-3.82
2023-02-06T18:10:56.044Z,-3.84
2023-02-06T18:13:24.460Z,-3.92
2023-02-06T18:15:53.358Z,-3.85
2023-02-06T18:18:20.035Z,-3.71
2023-02-06T18:20:46.678Z,-3.85
2023-02-06T18:23:13.859Z,-3.82
2023-02-06T18:25:43.519Z,-3.99
2023-02-06T18:28:13.937Z,-4.11
2023-02-06T18:30:42.080Z,-4.29
2023-02-06T18:33:11.297Z,-4.42
2023-02-06T18:35:45.689Z,-3.86
2023-02-06T18:38:14.235Z,-3.84
2023-02-06T18:40:43.006Z,-3.81
2023-02-06T18:43:09.661Z,-3.94
2023-02-06T18:45:38.392Z,-3.84
2023-02-06T18:48:09.117Z,-3.89
2023-02-06T18:50:39.220Z,-3.87
2023-02-06T18:53:06.076Z,-4.08
2023-02-06T18:55:35.157Z,-4.35
2023-02-06T18:58:02.588Z,-4.66
2023-02-06T19:00:29.636Z,-4.69
2023-02-06T19:02:58.013Z,-4.56
2023-02-06T19:05:24.842Z,-4.61
2023-02-06T19:07:53.100Z,-4.31
2023-02-06T19:10:20.829Z,-4.20
2023-02-06T19:12:47.692Z,-4.16
2023-02-06T19:15:15.616Z,-4.31
2023-02-06T19:17:42.776Z,-4.23
2023-02-06T19:20:11.046Z,-4.17
2023-02-06T19:22:38.571Z,-4.12
2023-02-06T19:25:10.213Z,-4.18
2023-02-06T19:27:38.522Z,-4.53
2023-02-06T19:30:07.825Z,-4.72
2023-02-06T19:32:35.023Z,-4.70
2023-02-06T19:35:03.103Z,-4.43
2023-02-06T19:37:30.978Z,-4.52
2023-02-06T19:39:57.763Z,-4.50
2023-02-06T19:42:24.418Z,-4.57
2023-02-06T19:44:53.951Z,-4.96
2023-02-06T19:47:21.021Z,-4.90
2023-02-06T19:49:50.913Z,-4.89
2023-02-06T19:52:17.589Z,-5.03
2023-02-06T19:54:44.272Z,-5.06
2023-02-06T19:57:11.017Z,-4.96
2023-02-06T19:59:37.687Z,-4.89
2023-02-06T20:02:04.424Z,-4.76
2023-02-06T20:04:34.663Z,-4.83
2023-02-06T20:07:02.029Z,-4.99
2023-02-06T20:09:29.403Z,-5.28
2023-02-06T20:11:56.804Z,-5.34
2023-02-06T20:14:24.727Z,-5.11
2023-02-06T20:16:51.650Z,-5.14
2023-02-06T20:19:27.152Z,-5.41
2023-02-06T20:21:59.120Z,-5.46
2023-02-06T20:24:30.223Z,-5.52
2023-02-06T20:27:00.764Z,-5.68
2023-02-06T20:29:30.711Z,-5.53
2023-02-06T20:31:57.533Z,-5.24
2023-02-06T20:34:25.502Z,-5.18
2023-02-06T20:36:55.252Z,-4.98
2023-02-06T20:39:22.057Z,-4.89
2023-02-06T20:41:50.354Z,-4.85
2023-02-06T20:44:17.996Z,-4.91
2023-02-06T20:46:45.275Z,-4.81
2023-02-06T20:49:17.810Z,-4.80
2023-02-06T20:51:44.761Z,-4.93
2023-02-06T20:54:12.051Z,-4.92
2023-02-06T20:56:39.918Z,-4.94
2023-02-06T20:59:07.962Z,-5.20
2023-02-06T21:01:35.163Z,-5.14
2023-02-06T21:04:05.454Z,-5.19
2023-02-06T21:06:32.586Z,-5.34
2023-02-06T21:09:03.130Z,-5.35
2023-02-06T21:11:34.121Z,-5.50
2023-02-06T21:14:02.551Z,-5.43
2023-02-06T21:16:32.932Z,-5.43
2023-02-06T21:19:00.711Z,-5.48
2023-02-06T21:21:27.746Z,-5.55
2023-02-06T21:23:58.188Z,-5.58
2023-02-06T21:26:25.791Z,-5.77
2023-02-06T21:28:52.994Z,-5.74
2023-02-06T21:31:23.400Z,-5.64
2023-02-06T21:33:51.925Z,-5.62
2023-02-06T21:36:21.038Z,-5.69
2023-02-06T21:38:48.109Z,-5.72
2023-02-06T21:41:18.185Z,-5.65
2023-02-06T21:43:45.756Z,-5.80
2023-02-06T21:46:13.272Z,-5.93
2023-02-06T21:48:41.130Z,-5.94
2023-02-06T21:51:13.480Z,-6.03
2023-02-06T21:53:41.598Z,-6.13
2023-02-06T21:56:13.734Z,-6.27
2023-02-06T21:58:40.333Z,-6.37
2023-02-06T22:01:08.917Z,-6.40
2023-02-06T22:03:36.089Z,-6.31
2023-02-06T22:06:11.737Z,-6.27
2023-02-06T22:08:40.926Z,-6.38
2023-02-06T22:11:16.849Z,-6.36
2023-02-06T22:13:44.254Z,-6.35
2023-02-06T22:16:13.181Z,-6.35
2023-02-06T22:18:41.016Z,-6.18
2023-02-06T22:21:16.719Z,-6.16
2023-02-06T22:23:45.123Z,-6.23
2023-02-06T22:26:14.158Z,-6.34
2023-02-06T22:28:41.705Z,-6.33
2023-02-06T22:31:12.182Z,-6.45
2023-02-06T22:33:38.900Z,-6.72
2023-02-06T22:36:07.739Z,-6.70
2023-02-06T22:38:34.813Z,-6.55
2023-02-06T22:41:03.729Z,-6.57
2023-02-06T22:43:32.730Z,-6.63
2023-02-06T22:45:59.562Z,-6.54
2023-02-06T22:48:28.858Z,-6.62
2023-02-06T22:50:55.582Z,-6.60
2023-02-06T22:53:32.688Z,-6.44
2023-02-06T22:56:23.329Z,-6.45
2023-02-06T22:58:51.183Z,-6.69
2023-02-06T23:01:20.462Z,-6.71
2023-02-06T23:03:47.736Z,-6.90
2023-02-06T23:06:15.767Z,-7.27
2023-02-06T23:08:43.516Z,-7.18
2023-02-06T23:11:12.115Z,-7.13
2023-02-06T23:13:39.540Z,-7.27
2023-02-06T23:16:07.476Z,-7.30
2023-02-06T23:18:35.117Z,-7.30
2023-02-06T23:21:10.864Z,-7.28
2023-02-06T23:23:39.053Z,-7.27
2023-02-06T23:26:11.127Z,-7.52
2023-02-06T23:28:38.711Z,-7.49
2023-02-06T23:31:06.485Z,-7.52
2023-02-06T23:33:33.884Z,-7.41
2023-02-06T23:36:06.773Z,-7.19
2023-02-06T23:38:33.608Z,-7.05
2023-02-06T23:41:12.866Z,-6.89
2023-02-06T23:43:39.762Z,-6.78
2023-02-06T23:46:12.219Z,-6.75
2023-02-06T23:48:39.499Z,-6.87
2023-02-06T23:51:06.492Z,-6.78
2023-02-06T23:53:33.339Z,-6.71
2023-02-06T23:56:00.118Z,-6.86
2023-02-06T23:58:27.075Z,-6.86
